sensor_id;sensor_type;location;lat;lon;timestamp;pressure;altitude;pressure_sealevel;temperature;humidity
78144;BME280;67394;52.522;13.622;2023-04-24T00:00:57;99742.72;;;9.73;88.55
78144;BME280;67394;52.522;13.622;2023-04-24T00:03:23;99747.03;;;9.68;88.74
78144;BME280;67394;52.522;13.622;2023-04-24T00:05:50;99745.34;;;9.67;88.64
78144;BME280;67394;52.522;13.622;2023-04-24T00:08:17;99740.25;;;9.66;88.59
78144;BME280;67394;52.522;13.622;2023-04-24T00:10:43;99737.75;;;9.63;88.65
78144;BME280;67394;52.522;13.622;2023-04-24T00:13:10;99741.09;;;9.66;88.44
78144;BME280;67394;52.522;13.622;2023-04-24T00:15:36;99735.94;;;9.71;88.74
78144;BME280;67394;52.522;13.622;2023-04-24T00:18:02;99723.19;;;9.66;89.00
78144;BME280;67394;52.522;13.622;2023-04-24T00:20:29;99726.66;;;9.61;88.97
78144;BME280;67394;52.522;13.622;2023-04-24T00:22:55;99720.72;;;9.60;89.71
78144;BME280;67394;52.522;13.622;2023-04-24T00:25:22;99720.75;;;9.55;89.34
78144;BME280;67394;52.522;13.622;2023-04-24T00:27:48;99715.56;;;9.63;89.02
78144;BME280;67394;52.522;13.622;2023-04-24T00:30:14;99715.59;;;9.60;89.23
78144;BME280;67394;52.522;13.622;2023-04-24T00:32:41;99713.03;;;9.59;89.01
78144;BME280;67394;52.522;13.622;2023-04-24T00:35:07;99705.38;;;9.57;89.91
78144;BME280;67394;52.522;13.622;2023-04-24T00:37:34;99698.56;;;9.58;89.47
78144;BME280;67394;52.522;13.622;2023-04-24T00:40:00;99693.41;;;9.59;89.56
78144;BME280;67394;52.522;13.622;2023-04-24T00:42:27;99691.75;;;9.57;89.37
78144;BME280;67394;52.522;13.622;2023-04-24T00:44:53;99687.56;;;9.51;90.59
78144;BME280;67394;52.522;13.622;2023-04-24T00:47:20;99691.78;;;9.53;90.10
78144;BME280;67394;52.522;13.622;2023-04-24T00:49:46;99688.28;;;9.61;90.48
78144;BME280;67394;52.522;13.622;2023-04-24T00:52:12;99678.06;;;9.59;89.44
78144;BME280;67394;52.522;13.622;2023-04-24T00:54:39;99676.28;;;9.66;89.81
78144;BME280;67394;52.522;13.622;2023-04-24T00:57:05;99683.94;;;9.67;89.81
78144;BME280;67394;52.522;13.622;2023-04-24T00:59:32;99676.34;;;9.63;90.20
78144;BME280;67394;52.522;13.622;2023-04-24T01:01:58;99672.00;;;9.68;90.35
78144;BME280;67394;52.522;13.622;2023-04-24T01:04:25;99666.88;;;9.68;90.79
78144;BME280;67394;52.522;13.622;2023-04-24T01:06:52;99673.81;;;9.60;91.02
78144;BME280;67394;52.522;13.622;2023-04-24T01:09:19;99671.16;;;9.66;90.82
78144;BME280;67394;52.522;13.622;2023-04-24T01:11:47;99662.72;;;9.61;90.70
78144;BME280;67394;52.522;13.622;2023-04-24T01:14:14;99655.06;;;9.59;90.49
78144;BME280;67394;52.522;13.622;2023-04-24T01:16:40;99654.19;;;9.59;90.53
78144;BME280;67394;52.522;13.622;2023-04-24T01:19:07;99665.25;;;9.61;91.13
78144;BME280;67394;52.522;13.622;2023-04-24T01:21:36;99656.75;;;9.59;90.83
78144;BME280;67394;52.522;13.622;2023-04-24T01:24:04;99651.66;;;9.55;91.56
78144;BME280;67394;52.522;13.622;2023-04-24T01:26:31;99672.97;;;9.58;90.74
78144;BME280;67394;52.522;13.622;2023-04-24T01:28:57;99670.41;;;9.59;91.18
78144;BME280;67394;52.522;13.622;2023-04-24T01:31:24;99666.94;;;9.63;91.63
78144;BME280;67394;52.522;13.622;2023-04-24T01:33:51;99668.59;;;9.66;90.91
78144;BME280;67394;52.522;13.622;2023-04-24T01:36:18;99669.44;;;9.68;91.47
78144;BME280;67394;52.522;13.622;2023-04-24T01:38:44;99666.88;;;9.68;91.64
78144;BME280;67394;52.522;13.622;2023-04-24T01:41:11;99660.03;;;9.68;90.72
78144;BME280;67394;52.522;13.622;2023-04-24T01:43:37;99658.34;;;9.69;91.55
78144;BME280;67394;52.522;13.622;2023-04-24T01:46:04;99652.41;;;9.65;91.48
78144;BME280;67394;52.522;13.622;2023-04-24T01:48:31;99648.09;;;9.69;91.53
78144;BME280;67394;52.522;13.622;2023-04-24T01:50:58;99646.38;;;9.69;90.94
78144;BME280;67394;52.522;13.622;2023-04-24T01:53:24;99648.13;;;9.66;91.56
78144;BME280;67394;52.522;13.622;2023-04-24T01:55:51;99645.53;;;9.69;90.83
78144;BME280;67394;52.522;13.622;2023-04-24T01:58:17;99644.66;;;9.71;91.41
78144;BME280;67394;52.522;13.622;2023-04-24T02:00:43;99639.59;;;9.65;91.08
78144;BME280;67394;52.522;13.622;2023-04-24T02:03:10;99640.53;;;9.61;91.28
78144;BME280;67394;52.522;13.622;2023-04-24T02:05:36;99641.41;;;9.59;90.59
78144;BME280;67394;52.522;13.622;2023-04-24T02:08:03;99633.75;;;9.59;91.30
78144;BME280;67394;52.522;13.622;2023-04-24T02:10:29;99629.47;;;9.58;91.28
78144;BME280;67394;52.522;13.622;2023-04-24T02:12:56;99626.03;;;9.60;91.14
78144;BME280;67394;52.522;13.622;2023-04-24T02:15:22;99614.16;;;9.56;91.50
78144;BME280;67394;52.522;13.622;2023-04-24T02:17:48;99623.53;;;9.55;91.58
78144;BME280;67394;52.522;13.622;2023-04-24T02:20:14;99632.91;;;9.57;91.63
78144;BME280;67394;52.522;13.622;2023-04-24T02:22:41;99628.72;;;9.52;91.83
78144;BME280;67394;52.522;13.622;2023-04-24T02:25:07;99621.91;;;9.51;91.29
78144;BME280;67394;52.522;13.622;2023-04-24T02:27:34;99621.94;;;9.48;92.27
78144;BME280;67394;52.522;13.622;2023-04-24T02:30:00;99610.84;;;9.49;91.55
78144;BME280;67394;52.522;13.622;2023-04-24T02:32:27;99615.94;;;9.51;92.08
78144;BME280;67394;52.522;13.622;2023-04-24T02:34:53;99611.66;;;9.51;91.73
78144;BME280;67394;52.522;13.622;2023-04-24T02:37:19;99613.41;;;9.49;92.15
78144;BME280;67394;52.522;13.622;2023-04-24T02:39:46;99609.16;;;9.45;91.54
78144;BME280;67394;52.522;13.622;2023-04-24T02:42:12;99616.84;;;9.45;92.24
78144;BME280;67394;52.522;13.622;2023-04-24T02:44:38;99614.31;;;9.44;92.36
78144;BME280;67394;52.522;13.622;2023-04-24T02:47:05;99614.28;;;9.45;92.56
78144;BME280;67394;52.522;13.622;2023-04-24T02:49:31;99615.16;;;9.44;92.44
78144;BME280;67394;52.522;13.622;2023-04-24T02:51:57;99621.97;;;9.45;92.80
78144;BME280;67394;52.522;13.622;2023-04-24T02:54:23;99613.44;;;9.43;92.43
78144;BME280;67394;52.522;13.622;2023-04-24T02:56:50;99610.91;;;9.43;91.75
78144;BME280;67394;52.522;13.622;2023-04-24T02:59:16;99618.56;;;9.45;92.42
78144;BME280;67394;52.522;13.622;2023-04-24T03:01:43;99620.28;;;9.43;91.79
78144;BME280;67394;52.522;13.622;2023-04-24T03:04:09;99613.50;;;9.42;91.79
78144;BME280;67394;52.522;13.622;2023-04-24T03:06:36;99610.03;;;9.46;92.67
78144;BME280;67394;52.522;13.622;2023-04-24T03:09:02;99613.44;;;9.43;92.50
78144;BME280;67394;52.522;13.622;2023-04-24T03:11:28;99610.88;;;9.45;92.06
78144;BME280;67394;52.522;13.622;2023-04-24T03:13:55;99602.34;;;9.46;92.48
78144;BME280;67394;52.522;13.622;2023-04-24T03:16:21;99608.28;;;9.49;93.13
78144;BME280;67394;52.522;13.622;2023-04-24T03:18:48;99604.88;;;9.49;92.53
78144;BME280;67394;52.522;13.622;2023-04-24T03:21:14;99609.13;;;9.50;93.03
78144;BME280;67394;52.522;13.622;2023-04-24T03:23:40;99606.56;;;9.51;92.80
78144;BME280;67394;52.522;13.622;2023-04-24T03:26:06;99614.22;;;9.53;93.52
78144;BME280;67394;52.522;13.622;2023-04-24T03:28:33;99615.84;;;9.57;93.66
78144;BME280;67394;52.522;13.622;2023-04-24T03:30:59;99620.91;;;9.62;92.89
78144;BME280;67394;52.522;13.622;2023-04-24T03:33:26;99614.94;;;9.63;93.33
78144;BME280;67394;52.522;13.622;2023-04-24T03:35:52;99611.44;;;9.67;92.64
78144;BME280;67394;52.522;13.622;2023-04-24T03:38:18;99614.84;;;9.69;93.70
78144;BME280;67394;52.522;13.622;2023-04-24T03:40:44;99612.16;;;9.76;93.04
78144;BME280;67394;52.522;13.622;2023-04-24T03:43:11;99612.16;;;9.78;93.61
78144;BME280;67394;52.522;13.622;2023-04-24T03:45:37;99612.94;;;9.83;92.85
78144;BME280;67394;52.522;13.622;2023-04-24T03:48:03;99619.75;;;9.84;92.89
78144;BME280;67394;52.522;13.622;2023-04-24T03:50:30;99610.31;;;9.86;93.39
78144;BME280;67394;52.522;13.622;2023-04-24T03:52:56;99611.16;;;9.88;93.43
78144;BME280;67394;52.522;13.622;2023-04-24T03:55:22;99617.06;;;9.91;92.90
78144;BME280;67394;52.522;13.622;2023-04-24T03:57:49;99625.59;;;9.94;92.82
78144;BME280;67394;52.522;13.622;2023-04-24T04:00:15;99625.56;;;9.95;93.03
78144;BME280;67394;52.522;13.622;2023-04-24T04:02:41;99628.91;;;9.99;93.30
78144;BME280;67394;52.522;13.622;2023-04-24T04:05:08;99634.00;;;10.02;92.95
78144;BME280;67394;52.522;13.622;2023-04-24T04:07:35;99627.13;;;10.05;93.19
78144;BME280;67394;52.522;13.622;2023-04-24T04:10:01;99621.94;;;10.08;93.19
78144;BME280;67394;52.522;13.622;2023-04-24T04:12:27;99614.28;;;10.07;92.56
78144;BME280;67394;52.522;13.622;2023-04-24T04:14:54;99622.78;;;10.09;92.90
78144;BME280;67394;52.522;13.622;2023-04-24T04:17:20;99620.19;;;10.10;92.71
78144;BME280;67394;52.522;13.622;2023-04-24T04:19:46;99607.34;;;10.13;92.60
78144;BME280;67394;52.522;13.622;2023-04-24T04:22:13;99610.75;;;10.14;92.72
78144;BME280;67394;52.522;13.622;2023-04-24T04:24:39;99615.03;;;10.15;92.88
78144;BME280;67394;52.522;13.622;2023-04-24T04:27:06;99608.16;;;10.17;92.57
78144;BME280;67394;52.522;13.622;2023-04-24T04:29:32;99606.47;;;10.16;92.65
78144;BME280;67394;52.522;13.622;2023-04-24T04:31:58;99610.72;;;10.17;92.76
78144;BME280;67394;52.522;13.622;2023-04-24T04:34:25;99616.66;;;10.20;92.55
78144;BME280;67394;52.522;13.622;2023-04-24T04:36:51;99615.78;;;10.21;92.62
78144;BME280;67394;52.522;13.622;2023-04-24T04:39:17;99607.25;;;10.22;92.18
78144;BME280;67394;52.522;13.622;2023-04-24T04:41:44;99604.66;;;10.24;92.13
78144;BME280;67394;52.522;13.622;2023-04-24T04:44:10;99610.59;;;10.26;92.24
78144;BME280;67394;52.522;13.622;2023-04-24T04:46:37;99614.81;;;10.28;92.36
78144;BME280;67394;52.522;13.622;2023-04-24T04:49:03;99617.31;;;10.33;91.78
78144;BME280;67394;52.522;13.622;2023-04-24T04:51:30;99624.16;;;10.33;92.33
78144;BME280;67394;52.522;13.622;2023-04-24T04:53:56;99621.47;;;10.39;92.10
78144;BME280;67394;52.522;13.622;2023-04-24T04:56:22;99627.41;;;10.41;91.96
78144;BME280;67394;52.522;13.622;2023-04-24T04:58:49;99626.53;;;10.43;91.40
78144;BME280;67394;52.522;13.622;2023-04-24T05:01:15;99635.00;;;10.48;91.19
78144;BME280;67394;52.522;13.622;2023-04-24T05:03:41;99637.47;;;10.53;91.06
78144;BME280;67394;52.522;13.622;2023-04-24T05:06:08;99639.91;;;10.60;90.90
78144;BME280;67394;52.522;13.622;2023-04-24T05:08:34;99641.63;;;10.60;90.79
78144;BME280;67394;52.522;13.622;2023-04-24T05:11:01;99639.00;;;10.63;90.93
78144;BME280;67394;52.522;13.622;2023-04-24T05:13:27;99631.25;;;10.68;90.98
78144;BME280;67394;52.522;13.622;2023-04-24T05:16:06;99622.63;;;10.72;90.60
78144;BME280;67394;52.522;13.622;2023-04-24T05:18:33;99625.13;;;10.76;90.54
78144;BME280;67394;52.522;13.622;2023-04-24T05:20:59;99626.75;;;10.80;90.28
78144;BME280;67394;52.522;13.622;2023-04-24T05:23:25;99633.50;;;10.84;90.39
78144;BME280;67394;52.522;13.622;2023-04-24T05:25:52;99624.94;;;10.85;89.92
78144;BME280;67394;52.522;13.622;2023-04-24T05:28:18;99624.03;;;10.88;88.96
78144;BME280;67394;52.522;13.622;2023-04-24T05:30:44;99629.06;;;10.92;89.53
78144;BME280;67394;52.522;13.622;2023-04-24T05:33:11;99632.41;;;10.97;89.00
78144;BME280;67394;52.522;13.622;2023-04-24T05:35:37;99629.72;;;11.04;88.63
78144;BME280;67394;52.522;13.622;2023-04-24T05:38:03;99631.50;;;11.02;88.54
78144;BME280;67394;52.522;13.622;2023-04-24T05:40:30;99633.09;;;11.06;88.35
78144;BME280;67394;52.522;13.622;2023-04-24T05:42:56;99637.13;;;11.19;87.95
78144;BME280;67394;52.522;13.622;2023-04-24T05:45:22;99639.47;;;11.31;87.56
78144;BME280;67394;52.522;13.622;2023-04-24T05:47:49;99637.59;;;11.39;86.51
78144;BME280;67394;52.522;13.622;2023-04-24T05:50:15;99641.03;;;11.36;86.97
78144;BME280;67394;52.522;13.622;2023-04-24T05:52:41;99640.06;;;11.44;86.49
78144;BME280;67394;52.522;13.622;2023-04-24T05:55:08;99643.50;;;11.43;86.11
78144;BME280;67394;52.522;13.622;2023-04-24T05:57:34;99645.19;;;11.44;86.08
78144;BME280;67394;52.522;13.622;2023-04-24T06:00:01;99650.84;;;11.59;85.19
78144;BME280;67394;52.522;13.622;2023-04-24T06:02:27;99641.16;;;11.72;84.69
78144;BME280;67394;52.522;13.622;2023-04-24T06:04:54;99635.91;;;11.78;84.69
78144;BME280;67394;52.522;13.622;2023-04-24T06:07:34;99649.56;;;11.80;83.97
78144;BME280;67394;52.522;13.622;2023-04-24T06:10:01;99649.53;;;11.82;83.35
78144;BME280;67394;52.522;13.622;2023-04-24T06:12:27;99657.19;;;11.85;83.35
78144;BME280;67394;52.522;13.622;2023-04-24T06:14:53;99661.47;;;11.84;83.31
78144;BME280;67394;52.522;13.622;2023-04-24T06:17:19;99662.22;;;11.89;83.16
78144;BME280;67394;52.522;13.622;2023-04-24T06:19:46;99666.44;;;11.92;83.56
78144;BME280;67394;52.522;13.622;2023-04-24T06:22:12;99662.84;;;11.99;83.48
78144;BME280;67394;52.522;13.622;2023-04-24T06:24:39;99666.91;;;12.09;82.60
78144;BME280;67394;52.522;13.622;2023-04-24T06:27:06;99664.06;;;12.21;81.61
78144;BME280;67394;52.522;13.622;2023-04-24T06:29:33;99661.16;;;12.36;80.38
78144;BME280;67394;52.522;13.622;2023-04-24T06:32:00;99658.41;;;12.42;80.69
78144;BME280;67394;52.522;13.622;2023-04-24T06:34:26;99659.06;;;12.51;80.40
78144;BME280;67394;52.522;13.622;2023-04-24T06:36:53;99664.34;;;12.46;80.20
78144;BME280;67394;52.522;13.622;2023-04-24T06:39:31;99662.75;;;12.40;79.55
78144;BME280;67394;52.522;13.622;2023-04-24T06:41:58;99660.34;;;12.33;79.60
78144;BME280;67394;52.522;13.622;2023-04-24T06:46:50;99670.41;;;12.42;78.60
78144;BME280;67394;52.522;13.622;2023-04-24T06:49:16;99670.06;;;12.57;78.75
78144;BME280;67394;52.522;13.622;2023-04-24T06:51:43;99673.97;;;12.72;78.20
78144;BME280;67394;52.522;13.622;2023-04-24T06:54:10;99663.13;;;12.93;78.12
78144;BME280;67394;52.522;13.622;2023-04-24T06:56:36;99662.81;;;13.05;76.80
78144;BME280;67394;52.522;13.622;2023-04-24T06:59:03;99664.22;;;13.18;76.63
78144;BME280;67394;52.522;13.622;2023-04-24T07:01:29;99667.06;;;13.39;76.44
78144;BME280;67394;52.522;13.622;2023-04-24T07:06:26;99657.81;;;13.63;73.26
78144;BME280;67394;52.522;13.622;2023-04-24T07:08:53;99644.31;;;13.54;73.41
78144;BME280;67394;52.522;13.622;2023-04-24T07:11:19;99651.91;;;13.59;71.44
78144;BME280;67394;52.522;13.622;2023-04-24T07:13:46;99654.34;;;13.64;73.31
78144;BME280;67394;52.522;13.622;2023-04-24T07:16:12;99656.81;;;13.67;70.02
78144;BME280;67394;52.522;13.622;2023-04-24T07:18:39;99658.16;;;13.80;72.14
78144;BME280;67394;52.522;13.622;2023-04-24T07:21:05;99659.00;;;13.80;69.35
78144;BME280;67394;52.522;13.622;2023-04-24T07:23:31;99663.78;;;13.92;70.85
78144;BME280;67394;52.522;13.622;2023-04-24T07:25:58;99660.56;;;14.14;68.08
78144;BME280;67394;52.522;13.622;2023-04-24T07:28:24;99649.13;;;14.22;70.49
78144;BME280;67394;52.522;13.622;2023-04-24T07:31:01;99661.78;;;14.30;68.68
78144;BME280;67394;52.522;13.622;2023-04-24T07:33:28;99660.63;;;14.40;68.05
78144;BME280;67394;52.522;13.622;2023-04-24T07:35:54;99656.91;;;14.49;67.61
78144;BME280;67394;52.522;13.622;2023-04-24T07:38:20;99658.81;;;14.69;65.91
78144;BME280;67394;52.522;13.622;2023-04-24T07:40:46;99654.25;;;14.77;65.46
78144;BME280;67394;52.522;13.622;2023-04-24T07:43:15;99649.88;;;14.79;67.39
78144;BME280;67394;52.522;13.622;2023-04-24T07:45:41;99659.63;;;14.95;67.69
78144;BME280;67394;52.522;13.622;2023-04-24T07:48:07;99664.91;;;14.92;64.84
78144;BME280;67394;52.522;13.622;2023-04-24T07:50:34;99651.25;;;14.89;64.98
78144;BME280;67394;52.522;13.622;2023-04-24T07:53:01;99662.56;;;14.85;64.00
78144;BME280;67394;52.522;13.622;2023-04-24T07:55:27;99656.94;;;14.98;63.69
78144;BME280;67394;52.522;13.622;2023-04-24T07:57:54;99661.94;;;15.03;62.29
78144;BME280;67394;52.522;13.622;2023-04-24T08:00:33;99663.78;;;14.99;63.57
78144;BME280;67394;52.522;13.622;2023-04-24T08:03:00;99653.84;;;14.89;63.48
78144;BME280;67394;52.522;13.622;2023-04-24T08:05:26;99658.78;;;14.95;62.22
78144;BME280;67394;52.522;13.622;2023-04-24T08:07:53;99660.50;;;15.19;63.74
78144;BME280;67394;52.522;13.622;2023-04-24T08:10:21;99662.66;;;15.31;60.78
78144;BME280;67394;52.522;13.622;2023-04-24T08:12:47;99656.59;;;15.32;62.21
78144;BME280;67394;52.522;13.622;2023-04-24T08:15:14;99653.78;;;15.38;61.65
78144;BME280;67394;52.522;13.622;2023-04-24T08:17:40;99653.69;;;15.42;61.42
78144;BME280;67394;52.522;13.622;2023-04-24T08:20:08;99660.72;;;15.36;60.57
78144;BME280;67394;52.522;13.622;2023-04-24T08:22:35;99664.34;;;15.32;60.11
78144;BME280;67394;52.522;13.622;2023-04-24T08:25:02;99660.69;;;15.38;61.06
78144;BME280;67394;52.522;13.622;2023-04-24T08:27:28;99663.72;;;15.49;61.96
78144;BME280;67394;52.522;13.622;2023-04-24T08:29:54;99658.03;;;15.64;60.97
78144;BME280;67394;52.522;13.622;2023-04-24T08:32:21;99660.53;;;15.89;62.13
78144;BME280;67394;52.522;13.622;2023-04-24T08:34:47;99651.53;;;15.99;60.02
78144;BME280;67394;52.522;13.622;2023-04-24T08:37:15;99659.00;;;16.07;60.81
78144;BME280;67394;52.522;13.622;2023-04-24T08:39:41;99660.00;;;16.03;60.88
78144;BME280;67394;52.522;13.622;2023-04-24T08:42:08;99652.28;;;16.23;60.75
78144;BME280;67394;52.522;13.622;2023-04-24T08:44:35;99651.88;;;16.34;60.36
78144;BME280;67394;52.522;13.622;2023-04-24T08:47:02;99652.22;;;16.46;59.52
78144;BME280;67394;52.522;13.622;2023-04-24T08:49:29;99635.78;;;16.69;59.30
78144;BME280;67394;52.522;13.622;2023-04-24T08:54:21;99649.22;;;16.98;58.34
78144;BME280;67394;52.522;13.622;2023-04-24T08:56:48;99657.78;;;17.00;58.79
78144;BME280;67394;52.522;13.622;2023-04-24T08:59:15;99661.88;;;17.05;57.83
78144;BME280;67394;52.522;13.622;2023-04-24T09:01:41;99664.75;;;16.98;57.29
78144;BME280;67394;52.522;13.622;2023-04-24T09:04:09;99664.03;;;17.35;56.96
78144;BME280;67394;52.522;13.622;2023-04-24T09:06:36;99663.00;;;17.58;56.52
78144;BME280;67394;52.522;13.622;2023-04-24T09:09:02;99665.06;;;17.70;55.64
78144;BME280;67394;52.522;13.622;2023-04-24T09:11:33;99661.94;;;17.62;53.99
78144;BME280;67394;52.522;13.622;2023-04-24T09:14:00;99652.97;;;17.50;54.00
78144;BME280;67394;52.522;13.622;2023-04-24T09:16:27;99660.19;;;17.43;53.19
78144;BME280;67394;52.522;13.622;2023-04-24T09:21:23;99654.81;;;17.28;54.17
78144;BME280;67394;52.522;13.622;2023-04-24T09:26:23;99663.59;;;17.25;53.22
78144;BME280;67394;52.522;13.622;2023-04-24T09:28:49;99666.81;;;17.30;54.07
78144;BME280;67394;52.522;13.622;2023-04-24T09:31:19;99668.34;;;17.15;53.72
78144;BME280;67394;52.522;13.622;2023-04-24T09:33:55;99662.81;;;17.23;53.41
78144;BME280;67394;52.522;13.622;2023-04-24T09:38:57;99666.06;;;17.08;53.62
78144;BME280;67394;52.522;13.622;2023-04-24T09:41:24;99668.06;;;17.22;53.52
78144;BME280;67394;52.522;13.622;2023-04-24T09:43:50;99668.63;;;17.28;54.17
78144;BME280;67394;52.522;13.622;2023-04-24T09:46:19;99669.28;;;17.33;52.70
78144;BME280;67394;52.522;13.622;2023-04-24T09:48:45;99671.09;;;17.31;52.81
78144;BME280;67394;52.522;13.622;2023-04-24T09:51:12;99669.44;;;17.10;52.49
78144;BME280;67394;52.522;13.622;2023-04-24T09:53:38;99665.16;;;16.89;53.08
78144;BME280;67394;52.522;13.622;2023-04-24T09:56:09;99675.13;;;16.77;53.50
78144;BME280;67394;52.522;13.622;2023-04-24T09:58:36;99670.16;;;16.73;54.63
78144;BME280;67394;52.522;13.622;2023-04-24T10:01:02;99678.66;;;16.75;55.80
78144;BME280;67394;52.522;13.622;2023-04-24T10:03:33;99671.63;;;16.78;55.07
78144;BME280;67394;52.522;13.622;2023-04-24T10:06:01;99674.50;;;16.93;56.45
78144;BME280;67394;52.522;13.622;2023-04-24T10:08:33;99666.97;;;16.87;57.44
78144;BME280;67394;52.522;13.622;2023-04-24T10:11:00;99666.00;;;16.89;57.20
78144;BME280;67394;52.522;13.622;2023-04-24T10:13:27;99674.78;;;16.85;57.66
78144;BME280;67394;52.522;13.622;2023-04-24T10:15:54;99671.00;;;16.94;58.31
78144;BME280;67394;52.522;13.622;2023-04-24T10:18:22;99664.06;;;16.94;58.16
78144;BME280;67394;52.522;13.622;2023-04-24T10:20:50;99665.16;;;17.09;57.92
78144;BME280;67394;52.522;13.622;2023-04-24T10:23:17;99659.78;;;17.13;56.81
78144;BME280;67394;52.522;13.622;2023-04-24T10:25:45;99668.72;;;17.06;57.41
78144;BME280;67394;52.522;13.622;2023-04-24T10:28:11;99664.59;;;17.02;56.02
78144;BME280;67394;52.522;13.622;2023-04-24T10:30:38;99670.28;;;17.10;56.54
78144;BME280;67394;52.522;13.622;2023-04-24T10:33:08;99668.13;;;17.20;56.07
78144;BME280;67394;52.522;13.622;2023-04-24T10:35:38;99674.38;;;17.16;55.87
78144;BME280;67394;52.522;13.622;2023-04-24T10:38:09;99671.97;;;17.11;55.04
78144;BME280;67394;52.522;13.622;2023-04-24T10:40:37;99673.19;;;17.03;55.54
78144;BME280;67394;52.522;13.622;2023-04-24T10:43:05;99681.00;;;17.22;56.39
78144;BME280;67394;52.522;13.622;2023-04-24T10:45:31;99673.81;;;17.28;55.67
78144;BME280;67394;52.522;13.622;2023-04-24T10:47:59;99670.75;;;17.39;54.36
78144;BME280;67394;52.522;13.622;2023-04-24T10:53:16;99672.94;;;17.48;53.43
78144;BME280;67394;52.522;13.622;2023-04-24T10:55:48;99668.50;;;17.31;54.00
78144;BME280;67394;52.522;13.622;2023-04-24T10:58:16;99662.22;;;17.55;53.44
78144;BME280;67394;52.522;13.622;2023-04-24T11:00:43;99665.31;;;17.45;54.36
78144;BME280;67394;52.522;13.622;2023-04-24T11:03:50;99662.09;;;17.59;54.00
78144;BME280;67394;52.522;13.622;2023-04-24T11:06:36;99658.28;;;17.67;53.84
78144;BME280;67394;52.522;13.622;2023-04-24T11:09:10;99657.19;;;18.09;52.29
78144;BME280;67394;52.522;13.622;2023-04-24T11:11:45;99657.66;;;18.53;53.42
78144;BME280;67394;52.522;13.622;2023-04-24T11:14:14;99652.59;;;18.50;53.05
78144;BME280;67394;52.522;13.622;2023-04-24T11:16:46;99660.34;;;18.15;51.58
78144;BME280;67394;52.522;13.622;2023-04-24T11:19:20;99648.72;;;18.05;52.83
78144;BME280;67394;52.522;13.622;2023-04-24T11:21:59;99649.75;;;18.20;53.35
78144;BME280;67394;52.522;13.622;2023-04-24T11:24:38;99636.97;;;18.51;53.18
78144;BME280;67394;52.522;13.622;2023-04-24T11:27:13;99644.69;;;19.05;53.16
78144;BME280;67394;52.522;13.622;2023-04-24T11:32:25;99651.56;;;19.06;50.84
78144;BME280;67394;52.522;13.622;2023-04-24T11:34:59;99649.91;;;18.70;50.63
78144;BME280;67394;52.522;13.622;2023-04-24T11:37:28;99654.03;;;18.55;51.30
78144;BME280;67394;52.522;13.622;2023-04-24T11:39:57;99648.91;;;18.19;49.96
78144;BME280;67394;52.522;13.622;2023-04-24T11:42:24;99657.63;;;18.00;49.81
78144;BME280;67394;52.522;13.622;2023-04-24T11:44:55;99662.31;;;17.91;51.02
78144;BME280;67394;52.522;13.622;2023-04-24T11:47:31;99658.50;;;17.61;50.99
78144;BME280;67394;52.522;13.622;2023-04-24T11:49:58;99661.09;;;17.42;52.41
78144;BME280;67394;52.522;13.622;2023-04-24T11:52:26;99689.19;;;16.92;58.28
78144;BME280;67394;52.522;13.622;2023-04-24T11:54:53;99703.38;;;16.18;67.85
78144;BME280;67394;52.522;13.622;2023-04-24T11:57:20;99709.16;;;15.56;71.08
78144;BME280;67394;52.522;13.622;2023-04-24T11:59:48;99710.41;;;15.20;74.75
78144;BME280;67394;52.522;13.622;2023-04-24T12:04:48;99700.66;;;15.28;75.16
78144;BME280;67394;52.522;13.622;2023-04-24T12:07:15;99695.00;;;15.42;76.97
78144;BME280;67394;52.522;13.622;2023-04-24T12:09:55;99678.38;;;15.49;74.88
78144;BME280;67394;52.522;13.622;2023-04-24T12:12:24;99690.25;;;16.23;75.35
78144;BME280;67394;52.522;13.622;2023-04-24T12:14:56;99686.47;;;16.31;74.24
78144;BME280;67394;52.522;13.622;2023-04-24T12:17:31;99691.72;;;16.30;72.80
78144;BME280;67394;52.522;13.622;2023-04-24T12:20:06;99670.00;;;16.76;72.65
78144;BME280;67394;52.522;13.622;2023-04-24T12:22:53;99663.72;;;17.22;72.92
78144;BME280;67394;52.522;13.622;2023-04-24T12:25:24;99660.91;;;17.47;71.37
78144;BME280;67394;52.522;13.622;2023-04-24T12:30:32;99661.63;;;17.30;70.19
78144;BME280;67394;52.522;13.622;2023-04-24T12:33:00;99642.88;;;16.84;66.18
78144;BME280;67394;52.522;13.622;2023-04-24T12:35:28;99651.72;;;16.80;67.68
78144;BME280;67394;52.522;13.622;2023-04-24T12:37:55;99657.44;;;16.67;66.89
78144;BME280;67394;52.522;13.622;2023-04-24T12:40:25;99642.88;;;17.44;62.94
78144;BME280;67394;52.522;13.622;2023-04-24T12:42:52;99647.34;;;17.79;58.00
78144;BME280;67394;52.522;13.622;2023-04-24T12:45:19;99654.59;;;18.09;57.07
78144;BME280;67394;52.522;13.622;2023-04-24T12:47:46;99645.06;;;18.09;58.33
78144;BME280;67394;52.522;13.622;2023-04-24T12:50:14;99640.06;;;17.69;57.40
78144;BME280;67394;52.522;13.622;2023-04-24T12:52:43;99635.94;;;17.65;57.02
78144;BME280;67394;52.522;13.622;2023-04-24T12:55:09;99634.94;;;17.67;54.63
78144;BME280;67394;52.522;13.622;2023-04-24T12:57:38;99633.28;;;17.66;54.55
78144;BME280;67394;52.522;13.622;2023-04-24T13:00:07;99629.03;;;17.82;52.69
78144;BME280;67394;52.522;13.622;2023-04-24T13:02:34;99621.41;;;17.98;51.20
78144;BME280;67394;52.522;13.622;2023-04-24T13:05:00;99619.81;;;17.77;48.84
78144;BME280;67394;52.522;13.622;2023-04-24T13:07:27;99623.28;;;17.57;47.06
78144;BME280;67394;52.522;13.622;2023-04-24T13:09:54;99634.22;;;17.82;45.79
78144;BME280;67394;52.522;13.622;2023-04-24T13:12:22;99631.84;;;17.97;45.17
78144;BME280;67394;52.522;13.622;2023-04-24T13:14:48;99621.00;;;18.42;44.72
78144;BME280;67394;52.522;13.622;2023-04-24T13:17:15;99623.09;;;18.70;44.62
78144;BME280;67394;52.522;13.622;2023-04-24T13:19:43;99621.03;;;19.09;42.89